createdAt,value
2023-03-23T15:59:01.894Z,1.02
2023-03-23T16:00:30.915Z,1.00
2023-03-23T16:01:54.664Z,1.27
2023-03-23T16:03:27.604Z,1.38
2023-03-23T16:04:51.390Z,1.30
2023-03-23T16:06:24.528Z,1.20
2023-03-23T16:07:48.889Z,1.38
2023-03-23T16:09:16.439Z,1.02
2023-03-23T16:10:43.549Z,1.33
2023-03-23T16:12:11.321Z,1.20
2023-03-23T16:13:34.747Z,1.00
2023-03-23T16:14:58.282Z,0.88
2023-03-23T16:16:24.635Z,0.90
2023-03-23T16:17:48.172Z,1.27
2023-03-23T16:19:15.001Z,0.90
2023-03-23T16:20:38.343Z,1.05
2023-03-23T16:22:03.386Z,1.35
2023-03-23T16:23:27.013Z,1.55
2023-03-23T16:24:50.389Z,1.15
2023-03-23T16:26:13.060Z,1.10
2023-03-23T16:27:39.325Z,1.40
2023-03-23T16:29:13.865Z,1.23
2023-03-23T16:30:45.041Z,1.52
2023-03-23T16:32:08.517Z,1.27
2023-03-23T16:33:33.613Z,1.45
2023-03-23T16:34:58.553Z,0.88
2023-03-23T16:36:22.201Z,0.93
2023-03-23T16:37:48.887Z,0.93
2023-03-23T16:39:13.425Z,1.40
2023-03-23T16:40:36.476Z,0.90
2023-03-23T16:41:59.900Z,1.10
2023-03-23T16:43:23.400Z,1.20
2023-03-23T16:44:48.822Z,1.00
2023-03-23T16:46:13.630Z,1.00
2023-03-23T16:47:37.354Z,0.90
2023-03-23T16:49:00.907Z,1.33
2023-03-23T16:50:25.734Z,1.40
2023-03-23T16:51:49.338Z,1.50
2023-03-23T16:53:11.968Z,1.38
2023-03-23T16:54:35.346Z,1.55
2023-03-23T16:55:59.730Z,1.27
2023-03-23T16:57:22.162Z,1.55
2023-03-23T16:58:45.593Z,1.70
2023-03-23T17:00:12.999Z,1.50
2023-03-23T17:01:36.762Z,1.67
2023-03-23T17:03:00.638Z,3.95
2023-03-23T17:04:24.028Z,2.00
2023-03-23T17:05:49.932Z,1.52
2023-03-23T17:07:13.302Z,1.80
2023-03-23T17:08:37.073Z,1.27
2023-03-23T17:10:00.542Z,2.38
2023-03-23T17:11:26.966Z,1.38
2023-03-23T17:12:49.493Z,1.83
2023-03-23T17:14:15.179Z,1.48
2023-03-23T17:15:39.557Z,1.80
2023-03-23T17:17:03.099Z,1.58
2023-03-23T17:18:29.759Z,1.33
2023-03-23T17:19:52.122Z,2.30
2023-03-23T17:21:17.237Z,2.35
2023-03-23T17:22:41.159Z,2.50
2023-03-23T17:24:04.913Z,2.28
2023-03-23T17:25:30.503Z,1.73
2023-03-23T17:26:53.954Z,1.20
2023-03-23T17:28:19.581Z,1.95
2023-03-23T17:29:45.314Z,1.92
2023-03-23T17:31:09.494Z,4.10
2023-03-23T17:32:32.990Z,5.15
2023-03-23T17:33:57.528Z,5.07
2023-03-23T17:35:21.194Z,3.17
2023-03-23T17:36:46.134Z,1.40
2023-03-23T17:38:09.520Z,2.75
2023-03-23T17:39:33.177Z,1.42
2023-03-23T17:41:08.918Z,1.30
2023-03-23T17:42:32.341Z,1.40
2023-03-23T17:43:55.790Z,1.33
2023-03-23T17:45:19.264Z,1.60
2023-03-23T17:46:42.874Z,1.75
2023-03-23T17:48:07.675Z,2.13
2023-03-23T17:49:31.765Z,1.40
2023-03-23T17:50:57.568Z,3.38
2023-03-23T17:52:22.427Z,1.38
2023-03-23T17:53:45.817Z,1.00
2023-03-23T17:55:09.974Z,2.13
2023-03-23T17:56:33.970Z,1.10
2023-03-23T17:57:57.668Z,2.92
2023-03-23T17:59:23.241Z,2.30
2023-03-23T18:00:46.714Z,1.65
2023-03-23T18:02:13.803Z,2.20
2023-03-23T18:03:38.447Z,2.40
2023-03-23T18:05:01.837Z,1.77
2023-03-23T18:06:25.466Z,2.75
2023-03-23T18:07:50.339Z,1.50
2023-03-23T18:09:14.556Z,1.40
2023-03-23T18:10:39.440Z,1.23
2023-03-23T18:12:05.338Z,1.13
2023-03-23T18:13:30.216Z,1.25
2023-03-23T18:14:56.759Z,1.95
2023-03-23T18:16:20.415Z,1.48
2023-03-23T18:17:47.996Z,1.10
2023-03-23T18:19:11.636Z,1.50
2023-03-23T18:20:35.330Z,1.10
2023-03-23T18:22:05.565Z,2.03
2023-03-23T18:23:32.011Z,2.20
2023-03-23T18:24:55.688Z,1.67
2023-03-23T18:26:30.534Z,1.48
2023-03-23T18:27:54.038Z,1.20
2023-03-23T18:29:19.854Z,2.72
2023-03-23T18:30:46.744Z,1.65
2023-03-23T18:32:10.362Z,3.55
2023-03-23T18:33:34.363Z,2.00
2023-03-23T18:34:58.070Z,1.23
2023-03-23T18:36:23.909Z,1.25
2023-03-23T18:37:48.694Z,1.70
2023-03-23T18:39:13.613Z,1.33
2023-03-23T18:40:37.445Z,1.20
2023-03-23T18:42:00.885Z,1.42
2023-03-23T18:43:24.647Z,1.10
2023-03-23T18:44:48.180Z,1.50
2023-03-23T18:46:12.092Z,1.63
2023-03-23T18:47:37.562Z,1.42
2023-03-23T18:49:02.070Z,1.35
2023-03-23T18:50:25.784Z,1.58
2023-03-23T18:51:51.097Z,1.42
2023-03-23T18:53:14.885Z,1.48
2023-03-23T18:54:42.533Z,1.85
2023-03-23T18:56:08.271Z,1.38
2023-03-23T18:57:31.636Z,1.50
2023-03-23T18:58:55.294Z,1.60
2023-03-23T19:00:21.077Z,1.83
2023-03-23T19:01:44.604Z,1.30
2023-03-23T19:03:09.607Z,1.85
2023-03-23T19:04:33.867Z,1.40
2023-03-23T19:06:01.163Z,1.70
2023-03-23T19:07:24.777Z,1.48
2023-03-23T19:08:48.436Z,1.80
2023-03-23T19:10:13.450Z,1.20
2023-03-23T19:11:37.669Z,1.17
2023-03-23T19:13:01.020Z,1.65
2023-03-23T19:14:24.673Z,1.60
2023-03-23T19:15:48.114Z,1.70
2023-03-23T19:17:11.767Z,1.50
2023-03-23T19:18:35.656Z,1.40
2023-03-23T19:19:59.092Z,1.50
2023-03-23T19:21:25.768Z,1.80
2023-03-23T19:22:49.875Z,1.67
2023-03-23T19:24:13.652Z,1.42
2023-03-23T19:25:38.691Z,1.13
2023-03-23T19:27:02.488Z,1.95
2023-03-23T19:29:52.677Z,1.50
2023-03-23T19:31:21.545Z,1.30
2023-03-23T19:32:45.501Z,1.60
2023-03-23T19:34:09.685Z,2.10
2023-03-23T19:35:32.295Z,2.17
2023-03-23T19:37:03.149Z,2.45
2023-03-23T19:38:29.088Z,1.80
2023-03-23T19:39:52.749Z,2.28
2023-03-23T19:41:19.098Z,2.45
2023-03-23T19:42:42.847Z,2.22
2023-03-23T19:44:07.813Z,1.83
2023-03-23T19:45:32.422Z,1.90
2023-03-23T19:46:56.559Z,2.25
2023-03-23T19:48:20.802Z,1.90
2023-03-23T19:49:44.564Z,2.15
2023-03-23T19:51:09.126Z,2.45
2023-03-23T19:52:32.819Z,2.50
2023-03-23T19:53:57.786Z,2.67
2023-03-23T19:55:21.749Z,2.53
2023-03-23T19:56:48.360Z,2.60
2023-03-23T19:58:12.340Z,2.72
2023-03-23T19:59:35.843Z,2.72
2023-03-23T20:01:01.254Z,3.20
2023-03-23T20:02:24.850Z,2.78
2023-03-23T20:03:48.510Z,3.35
2023-03-23T20:05:12.412Z,3.75
2023-03-23T20:06:37.706Z,3.65
2023-03-23T20:08:02.725Z,3.38
2023-03-23T20:09:26.580Z,3.17
2023-03-23T20:10:50.019Z,2.40
2023-03-23T20:12:16.181Z,3.03
2023-03-23T20:13:40.712Z,2.80
2023-03-23T20:15:04.459Z,3.00
2023-03-23T20:16:28.424Z,2.50
2023-03-23T20:17:53.166Z,2.60
2023-03-23T20:19:16.674Z,2.85
2023-03-23T20:20:40.048Z,3.40
2023-03-23T20:22:03.776Z,2.60
2023-03-23T20:23:27.264Z,2.97
2023-03-23T20:24:50.650Z,2.72
2023-03-23T20:26:15.885Z,3.35
2023-03-23T20:27:41.607Z,3.38
2023-03-23T20:29:07.055Z,2.90
2023-03-23T20:30:31.860Z,2.60
2023-03-23T20:31:55.463Z,1.83
2023-03-23T20:33:20.263Z,3.97
2023-03-23T20:34:48.732Z,3.70
2023-03-23T20:36:13.044Z,4.18
2023-03-23T20:37:38.101Z,3.97
2023-03-23T20:39:05.082Z,2.75
2023-03-23T20:40:29.401Z,3.25
2023-03-23T20:41:54.413Z,3.85
2023-03-23T20:43:19.711Z,2.40
2023-03-23T20:44:43.254Z,3.10
2023-03-23T20:46:08.135Z,2.28
2023-03-23T20:47:31.633Z,2.53
2023-03-23T20:48:54.299Z,2.08
2023-03-23T20:50:18.527Z,2.58
2023-03-23T20:51:42.017Z,2.85
2023-03-23T20:53:07.136Z,3.60
2023-03-23T20:54:30.628Z,2.92
2023-03-23T20:55:53.966Z,2.53
2023-03-23T20:57:17.415Z,2.20
2023-03-23T20:58:42.596Z,2.67
2023-03-23T21:00:07.100Z,3.03
2023-03-23T21:01:29.871Z,2.72
2023-03-23T21:02:54.045Z,3.00
2023-03-23T21:04:21.705Z,3.20
2023-03-23T21:05:45.839Z,2.65
2023-03-23T21:07:09.956Z,2.75
2023-03-23T21:08:33.996Z,3.30
2023-03-23T21:09:58.385Z,3.85
2023-03-23T21:11:23.528Z,2.83
2023-03-23T21:12:47.033Z,3.25
2023-03-23T21:14:11.608Z,3.28
2023-03-23T21:15:35.682Z,3.17
2023-03-23T21:17:01.275Z,3.00
2023-03-23T21:18:25.556Z,4.18
2023-03-23T21:19:48.988Z,3.45
2023-03-23T21:21:14.956Z,3.28
2023-03-23T21:22:38.686Z,3.13
2023-03-23T21:24:02.783Z,1.88
2023-03-23T21:25:34.224Z,2.35
2023-03-23T21:27:00.836Z,2.67
2023-03-23T21:28:24.235Z,2.20
2023-03-23T21:29:49.807Z,3.10
2023-03-23T21:31:15.002Z,3.67
2023-03-23T21:32:39.332Z,2.50
2023-03-23T21:34:02.754Z,2.55
2023-03-23T21:35:26.366Z,2.13
2023-03-23T21:36:48.784Z,2.45
2023-03-23T21:38:15.218Z,2.15
2023-03-23T21:39:38.644Z,2.65
2023-03-23T21:41:06.165Z,2.33
2023-03-23T21:42:31.046Z,2.78
2023-03-23T21:43:54.098Z,2.55
2023-03-23T21:45:20.976Z,2.17
2023-03-23T21:46:44.940Z,2.83
2023-03-23T21:48:09.097Z,2.28
2023-03-23T21:49:32.759Z,2.58
2023-03-23T21:50:56.496Z,2.42
2023-03-23T21:52:20.766Z,2.15
2023-03-23T21:53:43.703Z,2.80
2023-03-23T21:55:07.996Z,3.45
2023-03-23T21:56:31.259Z,2.80
2023-03-23T21:57:54.704Z,3.13
2023-03-23T21:59:18.094Z,2.90
2023-03-23T22:00:45.776Z,3.28
2023-03-23T22:02:12.650Z,3.05
2023-03-23T22:03:35.416Z,3.00
2023-03-23T22:04:58.920Z,2.72
2023-03-23T22:06:27.087Z,2.80
2023-03-23T22:07:50.703Z,2.75
2023-03-23T22:09:14.189Z,3.00
2023-03-23T22:10:39.933Z,2.90
2023-03-23T22:12:04.421Z,3.35
2023-03-23T22:13:27.814Z,2.63
2023-03-23T22:14:51.285Z,2.75
2023-03-23T22:16:17.971Z,3.20
2023-03-23T22:17:41.794Z,3.30
2023-03-23T22:19:05.731Z,3.67
2023-03-23T22:20:29.949Z,3.42
2023-03-23T22:21:53.475Z,3.45
2023-03-23T22:23:17.140Z,3.40
2023-03-23T22:24:40.785Z,3.40
2023-03-23T22:26:04.816Z,3.72
2023-03-23T22:27:28.478Z,4.05
2023-03-23T22:28:52.795Z,3.63
2023-03-23T22:30:16.947Z,3.50
2023-03-23T22:31:41.948Z,3.45
2023-03-23T22:33:04.842Z,3.88
2023-03-23T22:34:29.027Z,4.00
2023-03-23T22:35:52.025Z,3.92
2023-03-23T22:37:16.182Z,3.63
2023-03-23T22:38:41.440Z,3.92
2023-03-23T22:40:06.808Z,3.55
2023-03-23T22:41:30.929Z,3.90
2023-03-23T22:42:54.513Z,4.15
2023-03-23T22:44:19.285Z,4.70
2023-03-23T22:45:42.928Z,4.05
2023-03-23T22:47:08.264Z,3.78
2023-03-23T22:48:31.839Z,3.65
2023-03-23T22:49:55.304Z,3.78
2023-03-23T22:51:21.253Z,3.50
2023-03-23T22:52:44.788Z,3.20
2023-03-23T22:54:08.413Z,3.53
2023-03-23T22:55:31.991Z,4.03
2023-03-23T22:56:56.042Z,3.28
2023-03-23T22:58:19.764Z,3.67
2023-03-23T22:59:43.255Z,4.18
2023-03-23T23:01:08.842Z,3.03
2023-03-23T23:02:33.797Z,3.53
2023-03-23T23:03:57.634Z,3.25
2023-03-23T23:05:21.333Z,3.50
2023-03-23T23:06:44.943Z,3.25
2023-03-23T23:08:15.866Z,3.35
2023-03-23T23:09:40.159Z,3.28
2023-03-23T23:11:04.160Z,2.42
2023-03-23T23:12:31.641Z,2.88
2023-03-23T23:13:55.305Z,2.65
2023-03-23T23:15:17.930Z,3.33
2023-03-23T23:16:42.236Z,3.13
2023-03-23T23:18:07.386Z,2.70
2023-03-23T23:19:33.132Z,2.58
2023-03-23T23:20:58.739Z,2.88
2023-03-23T23:22:22.431Z,2.40
2023-03-23T23:23:46.697Z,2.88
2023-03-23T23:25:11.044Z,2.65
2023-03-23T23:26:35.021Z,3.10
2023-03-23T23:27:59.641Z,2.70
2023-03-23T23:29:23.139Z,2.63
2023-03-23T23:30:47.020Z,2.65
2023-03-23T23:32:09.703Z,2.65
2023-03-23T23:33:34.655Z,2.03
2023-03-23T23:34:57.121Z,2.42
2023-03-23T23:36:21.780Z,2.38
2023-03-23T23:37:45.284Z,2.35
2023-03-23T23:39:08.921Z,2.38
2023-03-23T23:40:32.969Z,2.10
2023-03-23T23:41:56.559Z,1.80
2023-03-23T23:43:20.246Z,2.25
2023-03-23T23:44:46.326Z,2.20
2023-03-23T23:46:09.817Z,2.10
2023-03-23T23:47:32.460Z,2.30
2023-03-23T23:48:57.451Z,2.38
2023-03-23T23:50:21.528Z,2.08
2023-03-23T23:51:45.796Z,2.10
2023-03-23T23:53:10.999Z,1.95
2023-03-23T23:54:33.624Z,1.88
2023-03-23T23:55:57.198Z,1.70
2023-03-23T23:57:21.148Z,2.08
2023-03-23T23:58:44.622Z,2.15
